sensor_id;sensor_type;location;lat;lon;timestamp;P1;P2;P0
80692;PMS5003;70055;39.436;-77.514;2023-12-20T00:00:48;2;2;
80692;PMS5003;70055;39.436;-77.514;2023-12-20T00:03:16;2;2;
80692;PMS5003;70055;39.436;-77.514;2023-12-20T00:05:44;2;2;
80692;PMS5003;70055;39.436;-77.514;2023-12-20T00:08:14;2;2;
80692;PMS5003;70055;39.436;-77.514;2023-12-20T00:10:43;2;2;
80692;PMS5003;70055;39.436;-77.514;2023-12-20T00:13:12;4;4;
80692;PMS5003;70055;39.436;-77.514;2023-12-20T00:15:40;4;4;
80692;PMS5003;70055;39.436;-77.514;2023-12-20T00:18:08;1;1;
80692;PMS5003;70055;39.436;-77.514;2023-12-20T00:20:36;2;2;
80692;PMS5003;70055;39.436;-77.514;2023-12-20T00:23:05;4;4;
80692;PMS5003;70055;39.436;-77.514;2023-12-20T00:25:34;2;2;
80692;PMS5003;70055;39.436;-77.514;2023-12-20T00:28:02;2;2;
80692;PMS5003;70055;39.436;-77.514;2023-12-20T00:30:31;4;4;
80692;PMS5003;70055;39.436;-77.514;2023-12-20T00:32:58;2;2;
80692;PMS5003;70055;39.436;-77.514;2023-12-20T00:35:26;2;2;
80692;PMS5003;70055;39.436;-77.514;2023-12-20T00:37:54;2;2;
80692;PMS5003;70055;39.436;-77.514;2023-12-20T00:40:24;4;4;
80692;PMS5003;70055;39.436;-77.514;2023-12-20T00:42:53;2;2;
80692;PMS5003;70055;39.436;-77.514;2023-12-20T00:45:22;5;5;
80692;PMS5003;70055;39.436;-77.514;2023-12-20T00:47:50;4;4;
80692;PMS5003;70055;39.436;-77.514;2023-12-20T00:50:20;4;4;
80692;PMS5003;70055;39.436;-77.514;2023-12-20T00:52:49;4;4;
80692;PMS5003;70055;39.436;-77.514;2023-12-20T00:55:16;2;2;
80692;PMS5003;70055;39.436;-77.514;2023-12-20T00:57:44;4;4;
80692;PMS5003;70055;39.436;-77.514;2023-12-20T01:00:13;5;4;
80692;PMS5003;70055;39.436;-77.514;2023-12-20T01:02:43;4;4;
80692;PMS5003;70055;39.436;-77.514;2023-12-20T01:05:13;5;5;
80692;PMS5003;70055;39.436;-77.514;2023-12-20T01:07:40;5;5;
80692;PMS5003;70055;39.436;-77.514;2023-12-20T01:10:08;5;5;
80692;PMS5003;70055;39.436;-77.514;2023-12-20T01:12:41;4;4;
80692;PMS5003;70055;39.436;-77.514;2023-12-20T01:15:10;5;5;
80692;PMS5003;70055;39.436;-77.514;2023-12-20T01:17:40;4;4;
80692;PMS5003;70055;39.436;-77.514;2023-12-20T01:20:09;4;4;
80692;PMS5003;70055;39.436;-77.514;2023-12-20T01:22:37;4;4;
80692;PMS5003;70055;39.436;-77.514;2023-12-20T01:25:09;4;4;
80692;PMS5003;70055;39.436;-77.514;2023-12-20T01:27:37;4;4;
80692;PMS5003;70055;39.436;-77.514;2023-12-20T01:30:06;4;4;
80692;PMS5003;70055;39.436;-77.514;2023-12-20T01:32:36;4;4;
80692;PMS5003;70055;39.436;-77.514;2023-12-20T01:35:05;4;4;
80692;PMS5003;70055;39.436;-77.514;2023-12-20T01:37:32;4;4;
80692;PMS5003;70055;39.436;-77.514;2023-12-20T01:40:02;4;4;
80692;PMS5003;70055;39.436;-77.514;2023-12-20T01:42:30;2;2;
80692;PMS5003;70055;39.436;-77.514;2023-12-20T01:44:58;2;2;
80692;PMS5003;70055;39.436;-77.514;2023-12-20T01:47:25;4;4;
80692;PMS5003;70055;39.436;-77.514;2023-12-20T01:49:53;4;4;
80692;PMS5003;70055;39.436;-77.514;2023-12-20T01:52:23;4;4;
80692;PMS5003;70055;39.436;-77.514;2023-12-20T01:54:53;6;6;
80692;PMS5003;70055;39.436;-77.514;2023-12-20T01:57:24;5;5;
80692;PMS5003;70055;39.436;-77.514;2023-12-20T01:59:54;4;4;
80692;PMS5003;70055;39.436;-77.514;2023-12-20T02:02:23;4;4;
80692;PMS5003;70055;39.436;-77.514;2023-12-20T02:04:54;4;4;
80692;PMS5003;70055;39.436;-77.514;2023-12-20T02:07:26;6;6;
80692;PMS5003;70055;39.436;-77.514;2023-12-20T02:09:55;6;6;
80692;PMS5003;70055;39.436;-77.514;2023-12-20T02:12:23;3;3;
80692;PMS5003;70055;39.436;-77.514;2023-12-20T02:14:51;4;4;
80692;PMS5003;70055;39.436;-77.514;2023-12-20T02:17:19;4;3;
80692;PMS5003;70055;39.436;-77.514;2023-12-20T02:19:50;7;7;
80692;PMS5003;70055;39.436;-77.514;2023-12-20T02:22:18;7;7;
80692;PMS5003;70055;39.436;-77.514;2023-12-20T02:24:47;4;4;
80692;PMS5003;70055;39.436;-77.514;2023-12-20T02:27:15;7;6;
80692;PMS5003;70055;39.436;-77.514;2023-12-20T02:29:47;4;4;
80692;PMS5003;70055;39.436;-77.514;2023-12-20T02:32:17;7;7;
80692;PMS5003;70055;39.436;-77.514;2023-12-20T02:34:47;7;7;
80692;PMS5003;70055;39.436;-77.514;2023-12-20T02:37:17;6;6;
80692;PMS5003;70055;39.436;-77.514;2023-12-20T02:39:45;7;7;
80692;PMS5003;70055;39.436;-77.514;2023-12-20T02:42:14;6;6;
80692;PMS5003;70055;39.436;-77.514;2023-12-20T02:44:42;4;4;
80692;PMS5003;70055;39.436;-77.514;2023-12-20T02:47:09;7;7;
80692;PMS5003;70055;39.436;-77.514;2023-12-20T02:49:39;4;4;
80692;PMS5003;70055;39.436;-77.514;2023-12-20T02:52:07;6;6;
80692;PMS5003;70055;39.436;-77.514;2023-12-20T02:54:36;6;6;
80692;PMS5003;70055;39.436;-77.514;2023-12-20T02:57:05;7;7;
80692;PMS5003;70055;39.436;-77.514;2023-12-20T02:59:35;4;4;
80692;PMS5003;70055;39.436;-77.514;2023-12-20T03:02:03;4;4;
80692;PMS5003;70055;39.436;-77.514;2023-12-20T03:04:32;4;4;
80692;PMS5003;70055;39.436;-77.514;2023-12-20T03:07:00;6;6;
80692;PMS5003;70055;39.436;-77.514;2023-12-20T03:09:28;6;6;
80692;PMS5003;70055;39.436;-77.514;2023-12-20T03:11:56;6;4;
80692;PMS5003;70055;39.436;-77.514;2023-12-20T03:14:25;4;4;
80692;PMS5003;70055;39.436;-77.514;2023-12-20T03:16:53;6;6;
80692;PMS5003;70055;39.436;-77.514;2023-12-20T03:19:22;6;6;
80692;PMS5003;70055;39.436;-77.514;2023-12-20T03:21:50;6;6;
80692;PMS5003;70055;39.436;-77.514;2023-12-20T03:24:17;4;4;
80692;PMS5003;70055;39.436;-77.514;2023-12-20T03:26:45;6;4;
80692;PMS5003;70055;39.436;-77.514;2023-12-20T03:29:13;9;9;
80692;PMS5003;70055;39.436;-77.514;2023-12-20T03:31:42;4;4;
80692;PMS5003;70055;39.436;-77.514;2023-12-20T03:34:09;4;4;
80692;PMS5003;70055;39.436;-77.514;2023-12-20T03:36:37;5;5;
80692;PMS5003;70055;39.436;-77.514;2023-12-20T03:39:05;4;4;
80692;PMS5003;70055;39.436;-77.514;2023-12-20T03:41:35;5;5;
80692;PMS5003;70055;39.436;-77.514;2023-12-20T03:44:04;5;5;
80692;PMS5003;70055;39.436;-77.514;2023-12-20T03:46:31;7;5;
80692;PMS5003;70055;39.436;-77.514;2023-12-20T03:49:01;8;7;
80692;PMS5003;70055;39.436;-77.514;2023-12-20T03:51:29;8;8;
80692;PMS5003;70055;39.436;-77.514;2023-12-20T03:53:57;11;11;
80692;PMS5003;70055;39.436;-77.514;2023-12-20T03:56:27;13;10;
80692;PMS5003;70055;39.436;-77.514;2023-12-20T03:58:55;7;5;
80692;PMS5003;70055;39.436;-77.514;2023-12-20T04:01:23;8;4;
80692;PMS5003;70055;39.436;-77.514;2023-12-20T04:03:51;8;8;
80692;PMS5003;70055;39.436;-77.514;2023-12-20T04:06:19;8;8;
80692;PMS5003;70055;39.436;-77.514;2023-12-20T04:08:47;5;5;
80692;PMS5003;70055;39.436;-77.514;2023-12-20T04:11:14;8;7;
80692;PMS5003;70055;39.436;-77.514;2023-12-20T04:13:42;5;5;
80692;PMS5003;70055;39.436;-77.514;2023-12-20T04:16:10;6;6;
80692;PMS5003;70055;39.436;-77.514;2023-12-20T04:18:38;6;6;
80692;PMS5003;70055;39.436;-77.514;2023-12-20T04:21:06;7;7;
80692;PMS5003;70055;39.436;-77.514;2023-12-20T04:23:33;7;7;
80692;PMS5003;70055;39.436;-77.514;2023-12-20T04:26:05;7;7;
80692;PMS5003;70055;39.436;-77.514;2023-12-20T04:28:34;7;7;
80692;PMS5003;70055;39.436;-77.514;2023-12-20T04:31:02;12;10;
80692;PMS5003;70055;39.436;-77.514;2023-12-20T04:33:30;9;6;
80692;PMS5003;70055;39.436;-77.514;2023-12-20T04:35:59;9;9;
80692;PMS5003;70055;39.436;-77.514;2023-12-20T04:38:28;16;15;
80692;PMS5003;70055;39.436;-77.514;2023-12-20T04:40:56;12;12;
80692;PMS5003;70055;39.436;-77.514;2023-12-20T04:43:24;9;9;
80692;PMS5003;70055;39.436;-77.514;2023-12-20T04:45:53;9;9;
80692;PMS5003;70055;39.436;-77.514;2023-12-20T04:48:21;7;7;
80692;PMS5003;70055;39.436;-77.514;2023-12-20T04:50:50;12;9;
80692;PMS5003;70055;39.436;-77.514;2023-12-20T04:53:18;7;7;
80692;PMS5003;70055;39.436;-77.514;2023-12-20T04:55:48;9;9;
80692;PMS5003;70055;39.436;-77.514;2023-12-20T04:58:16;7;7;
80692;PMS5003;70055;39.436;-77.514;2023-12-20T05:00:44;9;9;
80692;PMS5003;70055;39.436;-77.514;2023-12-20T05:03:13;7;7;
80692;PMS5003;70055;39.436;-77.514;2023-12-20T05:05:43;7;7;
80692;PMS5003;70055;39.436;-77.514;2023-12-20T05:08:14;6;6;
80692;PMS5003;70055;39.436;-77.514;2023-12-20T05:10:42;7;7;
80692;PMS5003;70055;39.436;-77.514;2023-12-20T05:13:10;7;7;
80692;PMS5003;70055;39.436;-77.514;2023-12-20T05:15:37;7;7;
80692;PMS5003;70055;39.436;-77.514;2023-12-20T05:18:06;10;9;
80692;PMS5003;70055;39.436;-77.514;2023-12-20T05:20:33;4;4;
80692;PMS5003;70055;39.436;-77.514;2023-12-20T05:23:04;9;9;
80692;PMS5003;70055;39.436;-77.514;2023-12-20T05:25:32;9;7;
80692;PMS5003;70055;39.436;-77.514;2023-12-20T05:28:03;7;7;
80692;PMS5003;70055;39.436;-77.514;2023-12-20T05:30:31;7;7;
80692;PMS5003;70055;39.436;-77.514;2023-12-20T05:32:58;10;10;
80692;PMS5003;70055;39.436;-77.514;2023-12-20T05:35:26;7;7;
80692;PMS5003;70055;39.436;-77.514;2023-12-20T05:37:55;10;10;
80692;PMS5003;70055;39.436;-77.514;2023-12-20T05:40:23;9;9;
80692;PMS5003;70055;39.436;-77.514;2023-12-20T05:42:51;12;10;
80692;PMS5003;70055;39.436;-77.514;2023-12-20T05:45:19;7;7;
80692;PMS5003;70055;39.436;-77.514;2023-12-20T05:47:46;10;10;
80692;PMS5003;70055;39.436;-77.514;2023-12-20T05:50:15;10;10;
80692;PMS5003;70055;39.436;-77.514;2023-12-20T05:52:42;10;10;
80692;PMS5003;70055;39.436;-77.514;2023-12-20T05:55:11;9;9;
80692;PMS5003;70055;39.436;-77.514;2023-12-20T05:57:41;9;9;
80692;PMS5003;70055;39.436;-77.514;2023-12-20T06:00:09;10;9;
80692;PMS5003;70055;39.436;-77.514;2023-12-20T06:02:38;7;7;
80692;PMS5003;70055;39.436;-77.514;2023-12-20T06:05:06;10;9;
80692;PMS5003;70055;39.436;-77.514;2023-12-20T06:07:35;7;7;
80692;PMS5003;70055;39.436;-77.514;2023-12-20T06:10:04;12;10;
80692;PMS5003;70055;39.436;-77.514;2023-12-20T06:12:32;12;9;
80692;PMS5003;70055;39.436;-77.514;2023-12-20T06:15:00;7;7;
80692;PMS5003;70055;39.436;-77.514;2023-12-20T06:17:29;9;7;
80692;PMS5003;70055;39.436;-77.514;2023-12-20T06:19:57;9;9;
80692;PMS5003;70055;39.436;-77.514;2023-12-20T06:22:25;10;10;
80692;PMS5003;70055;39.436;-77.514;2023-12-20T06:24:53;9;9;
80692;PMS5003;70055;39.436;-77.514;2023-12-20T06:27:21;12;10;
80692;PMS5003;70055;39.436;-77.514;2023-12-20T06:29:48;10;9;
80692;PMS5003;70055;39.436;-77.514;2023-12-20T06:32:18;10;10;
80692;PMS5003;70055;39.436;-77.514;2023-12-20T06:34:46;9;9;
80692;PMS5003;70055;39.436;-77.514;2023-12-20T06:37:14;15;13;
80692;PMS5003;70055;39.436;-77.514;2023-12-20T06:39:46;13;10;
80692;PMS5003;70055;39.436;-77.514;2023-12-20T06:42:14;10;10;
80692;PMS5003;70055;39.436;-77.514;2023-12-20T06:44:42;12;10;
80692;PMS5003;70055;39.436;-77.514;2023-12-20T06:47:11;12;10;
80692;PMS5003;70055;39.436;-77.514;2023-12-20T06:49:39;12;12;
80692;PMS5003;70055;39.436;-77.514;2023-12-20T06:52:08;12;10;
80692;PMS5003;70055;39.436;-77.514;2023-12-20T06:54:36;9;9;
80692;PMS5003;70055;39.436;-77.514;2023-12-20T06:57:04;12;12;
80692;PMS5003;70055;39.436;-77.514;2023-12-20T06:59:31;10;10;
80692;PMS5003;70055;39.436;-77.514;2023-12-20T07:01:59;10;10;
80692;PMS5003;70055;39.436;-77.514;2023-12-20T07:04:27;12;12;
80692;PMS5003;70055;39.436;-77.514;2023-12-20T07:06:55;12;12;
80692;PMS5003;70055;39.436;-77.514;2023-12-20T07:09:24;12;10;
80692;PMS5003;70055;39.436;-77.514;2023-12-20T07:11:53;9;9;
80692;PMS5003;70055;39.436;-77.514;2023-12-20T07:14:20;10;10;
80692;PMS5003;70055;39.436;-77.514;2023-12-20T07:16:48;12;12;
80692;PMS5003;70055;39.436;-77.514;2023-12-20T07:19:16;7;7;
80692;PMS5003;70055;39.436;-77.514;2023-12-20T07:21:44;9;9;
80692;PMS5003;70055;39.436;-77.514;2023-12-20T07:24:14;12;12;
80692;PMS5003;70055;39.436;-77.514;2023-12-20T07:26:42;10;10;
80692;PMS5003;70055;39.436;-77.514;2023-12-20T07:29:10;10;10;
80692;PMS5003;70055;39.436;-77.514;2023-12-20T07:31:38;12;12;
80692;PMS5003;70055;39.436;-77.514;2023-12-20T07:34:06;13;13;
80692;PMS5003;70055;39.436;-77.514;2023-12-20T07:36:35;15;13;
80692;PMS5003;70055;39.436;-77.514;2023-12-20T07:39:04;15;13;
80692;PMS5003;70055;39.436;-77.514;2023-12-20T07:41:33;15;13;
80692;PMS5003;70055;39.436;-77.514;2023-12-20T07:44:01;12;10;
80692;PMS5003;70055;39.436;-77.514;2023-12-20T07:46:31;12;10;
80692;PMS5003;70055;39.436;-77.514;2023-12-20T07:48:59;9;9;
80692;PMS5003;70055;39.436;-77.514;2023-12-20T07:51:27;19;15;
80692;PMS5003;70055;39.436;-77.514;2023-12-20T07:53:56;9;9;
80692;PMS5003;70055;39.436;-77.514;2023-12-20T07:56:23;13;13;
80692;PMS5003;70055;39.436;-77.514;2023-12-20T07:58:51;13;13;
80692;PMS5003;70055;39.436;-77.514;2023-12-20T08:01:19;13;13;
80692;PMS5003;70055;39.436;-77.514;2023-12-20T08:03:47;12;12;
80692;PMS5003;70055;39.436;-77.514;2023-12-20T08:06:17;13;13;
80692;PMS5003;70055;39.436;-77.514;2023-12-20T08:08:45;12;10;
80692;PMS5003;70055;39.436;-77.514;2023-12-20T08:11:15;12;10;
80692;PMS5003;70055;39.436;-77.514;2023-12-20T08:13:44;15;13;
80692;PMS5003;70055;39.436;-77.514;2023-12-20T08:16:13;10;10;
80692;PMS5003;70055;39.436;-77.514;2023-12-20T08:18:42;12;12;
80692;PMS5003;70055;39.436;-77.514;2023-12-20T08:21:11;12;12;
80692;PMS5003;70055;39.436;-77.514;2023-12-20T08:23:40;12;12;
80692;PMS5003;70055;39.436;-77.514;2023-12-20T08:26:07;12;10;
80692;PMS5003;70055;39.436;-77.514;2023-12-20T08:28:37;15;15;
80692;PMS5003;70055;39.436;-77.514;2023-12-20T08:31:05;12;12;
80692;PMS5003;70055;39.436;-77.514;2023-12-20T08:33:33;13;13;
80692;PMS5003;70055;39.436;-77.514;2023-12-20T08:36:02;13;13;
80692;PMS5003;70055;39.436;-77.514;2023-12-20T08:38:31;10;10;
80692;PMS5003;70055;39.436;-77.514;2023-12-20T08:41:00;12;10;
80692;PMS5003;70055;39.436;-77.514;2023-12-20T08:43:27;15;13;
80692;PMS5003;70055;39.436;-77.514;2023-12-20T08:45:55;12;12;
80692;PMS5003;70055;39.436;-77.514;2023-12-20T08:48:23;13;13;
80692;PMS5003;70055;39.436;-77.514;2023-12-20T08:50:53;13;13;
80692;PMS5003;70055;39.436;-77.514;2023-12-20T08:53:21;12;12;
80692;PMS5003;70055;39.436;-77.514;2023-12-20T08:55:50;10;10;
80692;PMS5003;70055;39.436;-77.514;2023-12-20T08:58:18;13;10;
80692;PMS5003;70055;39.436;-77.514;2023-12-20T09:00:46;16;13;
80692;PMS5003;70055;39.436;-77.514;2023-12-20T09:03:14;16;12;
80692;PMS5003;70055;39.436;-77.514;2023-12-20T09:05:42;10;10;
80692;PMS5003;70055;39.436;-77.514;2023-12-20T09:08:10;12;12;
80692;PMS5003;70055;39.436;-77.514;2023-12-20T09:10:38;12;12;
80692;PMS5003;70055;39.436;-77.514;2023-12-20T09:13:05;12;12;
80692;PMS5003;70055;39.436;-77.514;2023-12-20T09:15:33;13;13;
80692;PMS5003;70055;39.436;-77.514;2023-12-20T09:18:02;12;12;
80692;PMS5003;70055;39.436;-77.514;2023-12-20T09:20:30;12;12;
80692;PMS5003;70055;39.436;-77.514;2023-12-20T09:22:58;13;12;
80692;PMS5003;70055;39.436;-77.514;2023-12-20T09:25:25;13;12;
80692;PMS5003;70055;39.436;-77.514;2023-12-20T09:27:55;15;13;
80692;PMS5003;70055;39.436;-77.514;2023-12-20T09:30:23;15;13;
80692;PMS5003;70055;39.436;-77.514;2023-12-20T09:32:51;12;12;
80692;PMS5003;70055;39.436;-77.514;2023-12-20T09:35:19;15;13;
80692;PMS5003;70055;39.436;-77.514;2023-12-20T09:37:48;13;12;
80692;PMS5003;70055;39.436;-77.514;2023-12-20T09:40:17;12;12;
80692;PMS5003;70055;39.436;-77.514;2023-12-20T09:42:48;12;12;
80692;PMS5003;70055;39.436;-77.514;2023-12-20T09:45:23;12;12;
80692;PMS5003;70055;39.436;-77.514;2023-12-20T09:47:51;13;13;
80692;PMS5003;70055;39.436;-77.514;2023-12-20T09:50:21;13;13;
80692;PMS5003;70055;39.436;-77.514;2023-12-20T09:52:50;13;13;
80692;PMS5003;70055;39.436;-77.514;2023-12-20T09:55:20;12;10;
80692;PMS5003;70055;39.436;-77.514;2023-12-20T09:57:51;12;12;
80692;PMS5003;70055;39.436;-77.514;2023-12-20T10:00:19;13;13;
80692;PMS5003;70055;39.436;-77.514;2023-12-20T10:02:49;15;15;
80692;PMS5003;70055;39.436;-77.514;2023-12-20T10:05:26;16;16;
80692;PMS5003;70055;39.436;-77.514;2023-12-20T10:07:55;13;13;
80692;PMS5003;70055;39.436;-77.514;2023-12-20T10:10:22;13;12;
80692;PMS5003;70055;39.436;-77.514;2023-12-20T10:13:07;15;15;
80692;PMS5003;70055;39.436;-77.514;2023-12-20T10:15:37;10;10;
80692;PMS5003;70055;39.436;-77.514;2023-12-20T10:18:05;15;13;
80692;PMS5003;70055;39.436;-77.514;2023-12-20T10:20:33;16;16;
80692;PMS5003;70055;39.436;-77.514;2023-12-20T10:23:01;15;15;
80692;PMS5003;70055;39.436;-77.514;2023-12-20T10:25:29;12;12;
80692;PMS5003;70055;39.436;-77.514;2023-12-20T10:28:14;13;12;
80692;PMS5003;70055;39.436;-77.514;2023-12-20T10:30:45;13;12;
80692;PMS5003;70055;39.436;-77.514;2023-12-20T10:33:13;12;12;
80692;PMS5003;70055;39.436;-77.514;2023-12-20T10:35:51;16;16;
80692;PMS5003;70055;39.436;-77.514;2023-12-20T10:38:19;13;13;
80692;PMS5003;70055;39.436;-77.514;2023-12-20T10:40:47;13;13;
80692;PMS5003;70055;39.436;-77.514;2023-12-20T10:43:15;10;10;
80692;PMS5003;70055;39.436;-77.514;2023-12-20T10:45:45;10;10;
80692;PMS5003;70055;39.436;-77.514;2023-12-20T10:48:15;12;10;
80692;PMS5003;70055;39.436;-77.514;2023-12-20T10:50:45;13;12;
80692;PMS5003;70055;39.436;-77.514;2023-12-20T10:53:13;9;9;
80692;PMS5003;70055;39.436;-77.514;2023-12-20T10:55:43;13;13;
80692;PMS5003;70055;39.436;-77.514;2023-12-20T10:58:13;12;12;
80692;PMS5003;70055;39.436;-77.514;2023-12-20T11:00:41;13;13;
80692;PMS5003;70055;39.436;-77.514;2023-12-20T11:03:12;12;12;
80692;PMS5003;70055;39.436;-77.514;2023-12-20T11:05:46;13;13;
80692;PMS5003;70055;39.436;-77.514;2023-12-20T11:08:19;10;10;
80692;PMS5003;70055;39.436;-77.514;2023-12-20T11:10:55;15;13;
80692;PMS5003;70055;39.436;-77.514;2023-12-20T11:13:31;13;13;
80692;PMS5003;70055;39.436;-77.514;2023-12-20T11:16:02;16;13;
80692;PMS5003;70055;39.436;-77.514;2023-12-20T11:18:31;10;10;
80692;PMS5003;70055;39.436;-77.514;2023-12-20T11:21:00;12;12;
80692;PMS5003;70055;39.436;-77.514;2023-12-20T11:23:29;10;10;
80692;PMS5003;70055;39.436;-77.514;2023-12-20T11:25:58;12;12;
80692;PMS5003;70055;39.436;-77.514;2023-12-20T11:28:26;12;10;
80692;PMS5003;70055;39.436;-77.514;2023-12-20T11:30:56;15;13;
80692;PMS5003;70055;39.436;-77.514;2023-12-20T11:33:25;10;10;
80692;PMS5003;70055;39.436;-77.514;2023-12-20T11:35:55;12;12;
80692;PMS5003;70055;39.436;-77.514;2023-12-20T11:38:24;12;12;
80692;PMS5003;70055;39.436;-77.514;2023-12-20T11:40:53;10;10;
80692;PMS5003;70055;39.436;-77.514;2023-12-20T11:43:30;10;10;
80692;PMS5003;70055;39.436;-77.514;2023-12-20T11:46:02;12;12;
80692;PMS5003;70055;39.436;-77.514;2023-12-20T11:48:32;13;12;
80692;PMS5003;70055;39.436;-77.514;2023-12-20T11:51:02;12;12;
80692;PMS5003;70055;39.436;-77.514;2023-12-20T11:53:36;15;15;
80692;PMS5003;70055;39.436;-77.514;2023-12-20T11:56:04;15;13;
80692;PMS5003;70055;39.436;-77.514;2023-12-20T11:58:34;13;12;
80692;PMS5003;70055;39.436;-77.514;2023-12-20T12:01:03;15;15;
80692;PMS5003;70055;39.436;-77.514;2023-12-20T12:03:32;12;12;
80692;PMS5003;70055;39.436;-77.514;2023-12-20T12:06:02;10;10;
80692;PMS5003;70055;39.436;-77.514;2023-12-20T12:08:31;13;12;
80692;PMS5003;70055;39.436;-77.514;2023-12-20T12:11:00;13;13;
80692;PMS5003;70055;39.436;-77.514;2023-12-20T12:13:30;12;12;
80692;PMS5003;70055;39.436;-77.514;2023-12-20T12:15:58;13;12;
80692;PMS5003;70055;39.436;-77.514;2023-12-20T12:18:27;13;12;
80692;PMS5003;70055;39.436;-77.514;2023-12-20T12:20:59;13;13;
80692;PMS5003;70055;39.436;-77.514;2023-12-20T12:23:29;12;10;
80692;PMS5003;70055;39.436;-77.514;2023-12-20T12:25:57;13;13;
80692;PMS5003;70055;39.436;-77.514;2023-12-20T12:28:26;16;16;
80692;PMS5003;70055;39.436;-77.514;2023-12-20T12:30:57;15;15;
80692;PMS5003;70055;39.436;-77.514;2023-12-20T12:33:26;15;13;
80692;PMS5003;70055;39.436;-77.514;2023-12-20T12:35:54;13;13;
80692;PMS5003;70055;39.436;-77.514;2023-12-20T12:38:22;13;13;
80692;PMS5003;70055;39.436;-77.514;2023-12-20T12:40:51;13;10;
80692;PMS5003;70055;39.436;-77.514;2023-12-20T12:43:20;15;13;
80692;PMS5003;70055;39.436;-77.514;2023-12-20T12:45:48;13;13;
80692;PMS5003;70055;39.436;-77.514;2023-12-20T12:48:16;13;13;
80692;PMS5003;70055;39.436;-77.514;2023-12-20T12:50:45;13;12;
80692;PMS5003;70055;39.436;-77.514;2023-12-20T12:53:15;18;16;
80692;PMS5003;70055;39.436;-77.514;2023-12-20T12:55:42;13;13;
80692;PMS5003;70055;39.436;-77.514;2023-12-20T12:58:12;15;13;
80692;PMS5003;70055;39.436;-77.514;2023-12-20T13:00:40;12;12;
80692;PMS5003;70055;39.436;-77.514;2023-12-20T13:03:08;15;15;
80692;PMS5003;70055;39.436;-77.514;2023-12-20T13:05:37;15;15;
80692;PMS5003;70055;39.436;-77.514;2023-12-20T13:08:06;21;19;
80692;PMS5003;70055;39.436;-77.514;2023-12-20T13:10:36;15;15;
80692;PMS5003;70055;39.436;-77.514;2023-12-20T13:13:05;19;19;
80692;PMS5003;70055;39.436;-77.514;2023-12-20T13:15:33;24;24;
80692;PMS5003;70055;39.436;-77.514;2023-12-20T13:18:01;34;34;
80692;PMS5003;70055;39.436;-77.514;2023-12-20T13:20:30;36;34;
80692;PMS5003;70055;39.436;-77.514;2023-12-20T13:22:59;46;42;
80692;PMS5003;70055;39.436;-77.514;2023-12-20T13:25:27;36;36;
80692;PMS5003;70055;39.436;-77.514;2023-12-20T13:27:56;39;39;
80692;PMS5003;70055;39.436;-77.514;2023-12-20T13:30:24;39;36;
80692;PMS5003;70055;39.436;-77.514;2023-12-20T13:32:51;33;33;
80692;PMS5003;70055;39.436;-77.514;2023-12-20T13:35:19;27;27;
80692;PMS5003;70055;39.436;-77.514;2023-12-20T13:37:48;28;25;
80692;PMS5003;70055;39.436;-77.514;2023-12-20T13:40:18;22;21;
80692;PMS5003;70055;39.436;-77.514;2023-12-20T13:42:46;22;22;
80692;PMS5003;70055;39.436;-77.514;2023-12-20T13:45:18;18;16;
80692;PMS5003;70055;39.436;-77.514;2023-12-20T13:47:46;18;18;
80692;PMS5003;70055;39.436;-77.514;2023-12-20T13:50:14;15;13;
80692;PMS5003;70055;39.436;-77.514;2023-12-20T13:52:42;13;13;
80692;PMS5003;70055;39.436;-77.514;2023-12-20T13:55:11;14;14;
80692;PMS5003;70055;39.436;-77.514;2023-12-20T13:57:41;19;19;
80692;PMS5003;70055;39.436;-77.514;2023-12-20T14:00:11;18;16;
80692;PMS5003;70055;39.436;-77.514;2023-12-20T14:02:43;25;25;
80692;PMS5003;70055;39.436;-77.514;2023-12-20T14:05:12;31;31;
80692;PMS5003;70055;39.436;-77.514;2023-12-20T14:07:40;28;26;
80692;PMS5003;70055;39.436;-77.514;2023-12-20T14:10:08;14;13;
80692;PMS5003;70055;39.436;-77.514;2023-12-20T14:12:40;11;11;
80692;PMS5003;70055;39.436;-77.514;2023-12-20T14:15:10;13;13;
80692;PMS5003;70055;39.436;-77.514;2023-12-20T14:17:41;10;8;
80692;PMS5003;70055;39.436;-77.514;2023-12-20T14:20:09;8;8;
80692;PMS5003;70055;39.436;-77.514;2023-12-20T14:22:37;10;8;
80692;PMS5003;70055;39.436;-77.514;2023-12-20T14:25:07;10;10;
80692;PMS5003;70055;39.436;-77.514;2023-12-20T14:27:36;13;10;
80692;PMS5003;70055;39.436;-77.514;2023-12-20T14:30:05;11;10;
80692;PMS5003;70055;39.436;-77.514;2023-12-20T14:32:36;10;10;
80692;PMS5003;70055;39.436;-77.514;2023-12-20T14:35:05;10;10;
80692;PMS5003;70055;39.436;-77.514;2023-12-20T14:37:33;10;10;
80692;PMS5003;70055;39.436;-77.514;2023-12-20T14:40:01;10;10;
80692;PMS5003;70055;39.436;-77.514;2023-12-20T14:42:30;7;7;
80692;PMS5003;70055;39.436;-77.514;2023-12-20T14:44:59;8;8;
80692;PMS5003;70055;39.436;-77.514;2023-12-20T14:47:27;10;10;
80692;PMS5003;70055;39.436;-77.514;2023-12-20T14:49:56;11;10;
80692;PMS5003;70055;39.436;-77.514;2023-12-20T14:52:23;10;10;
80692;PMS5003;70055;39.436;-77.514;2023-12-20T14:54:52;10;10;
80692;PMS5003;70055;39.436;-77.514;2023-12-20T14:57:21;11;11;
80692;PMS5003;70055;39.436;-77.514;2023-12-20T14:59:50;12;12;
80692;PMS5003;70055;39.436;-77.514;2023-12-20T15:02:21;14;12;
80692;PMS5003;70055;39.436;-77.514;2023-12-20T15:04:50;12;11;
80692;PMS5003;70055;39.436;-77.514;2023-12-20T15:07:18;18;14;
80692;PMS5003;70055;39.436;-77.514;2023-12-20T15:09:46;14;14;
80692;PMS5003;70055;39.436;-77.514;2023-12-20T15:12:14;11;11;
80692;PMS5003;70055;39.436;-77.514;2023-12-20T15:14:49;12;11;
80692;PMS5003;70055;39.436;-77.514;2023-12-20T15:17:19;11;11;
80692;PMS5003;70055;39.436;-77.514;2023-12-20T15:19:48;11;11;
80692;PMS5003;70055;39.436;-77.514;2023-12-20T15:22:16;9;9;
80692;PMS5003;70055;39.436;-77.514;2023-12-20T15:24:45;10;9;
80692;PMS5003;70055;39.436;-77.514;2023-12-20T15:27:15;9;9;
80692;PMS5003;70055;39.436;-77.514;2023-12-20T15:29:45;9;9;
80692;PMS5003;70055;39.436;-77.514;2023-12-20T15:32:14;12;12;
80692;PMS5003;70055;39.436;-77.514;2023-12-20T15:34:44;9;9;
80692;PMS5003;70055;39.436;-77.514;2023-12-20T15:37:13;10;10;
80692;PMS5003;70055;39.436;-77.514;2023-12-20T15:39:42;10;9;
80692;PMS5003;70055;39.436;-77.514;2023-12-20T15:42:09;9;9;
80692;PMS5003;70055;39.436;-77.514;2023-12-20T15:44:37;7;7;
80692;PMS5003;70055;39.436;-77.514;2023-12-20T15:47:05;9;9;
80692;PMS5003;70055;39.436;-77.514;2023-12-20T15:49:33;7;7;
80692;PMS5003;70055;39.436;-77.514;2023-12-20T15:52:02;7;7;
80692;PMS5003;70055;39.436;-77.514;2023-12-20T15:54:30;11;11;
80692;PMS5003;70055;39.436;-77.514;2023-12-20T15:57:00;10;10;
80692;PMS5003;70055;39.436;-77.514;2023-12-20T15:59:28;11;11;
80692;PMS5003;70055;39.436;-77.514;2023-12-20T16:01:55;8;8;
80692;PMS5003;70055;39.436;-77.514;2023-12-20T16:04:22;11;11;
80692;PMS5003;70055;39.436;-77.514;2023-12-20T16:06:52;11;11;
80692;PMS5003;70055;39.436;-77.514;2023-12-20T16:09:19;11;11;